Главная страница
METAR-TAF:

METAR-TAF

Аэропорты :

Эмари, Эстония

широта: 59-15-44N, долгота: 24-13-07E, высота над уровнем моря: 20 м

Текущие метеонаблюдения

Эта сводка был подготовлена 1 час и 8 минут назад, в 14:50 UTC
Ветер 10 Узел от северо-северо-восточный
Температура 20°C
Влажность 49%
Давление 1011 hPa
Видимость 10 км и более
Нет облачности ниже 1500 м, и нет кучево-дождевой облачности

METAR: EEEI 221450Z AUTO 02010KT CAVOK 20/09 Q1011

Время: 18:58 (15:58 UTC)

Прогноз

Эта сводка был подготовлена 34 часа и 28 минут назад, в 05:30 UTC
Прогноз действительный с 21-го 06 UTC до 22-го 06 UTC
Ветер 14 Узел от западно-северо-западный
Видимость 10 км и более
Нет облачности ниже 1500 м, и нет кучево-дождевой облачности
Вероятность 40% :
временами
С 21-го 10 UTC до 21-го 14 UTC
Ветер 16 Узел от северо-западный с порывами до 26 Узел
изменения
С 21-го 18 UTC до 21-го 20 UTC
Ветер 5 Узел от северный

TAF: EEEI 210530Z 2106/2206 29014KT CAVOK PROB40 TEMPO 2110/2114 31016G26KT BECMG 2118/2120 35005KT

Метеонаблюдения и прогнозы для более 4000 аэропортов (сводки METAR и TAF).

Имеющиеся станции представлены на карте желтыми и красными точками.

Чтобы увидеть название станции, наведите на нее мышь.

Затем щелкните, чтобы увидеть метеонаблюдения и метеопрогнозы.

Управление картой: чтобы увеличить масштаб, щелкните зеленые кнопки с черным крестиком; чтобы уменьшить масштаб, щелкните зеленую кнопку с тире; для просмотра соседних карт щелкайте зеленые стрелки.


METAR-TAF: